createdAt,value
2022-11-02T00:02:35.073Z,93357.00
2022-11-02T00:05:23.808Z,93363.09
2022-11-02T00:08:06.786Z,93355.50
2022-11-02T00:10:49.642Z,93353.88
2022-11-02T00:13:35.835Z,93362.56
2022-11-02T00:16:22.220Z,93364.34
2022-11-02T00:19:05.525Z,93359.34
2022-11-02T00:21:48.483Z,93364.53
2022-11-02T00:24:33.532Z,93367.22
2022-11-02T00:27:16.503Z,93370.75
2022-11-02T00:30:00.042Z,93371.59
2022-11-02T00:32:44.294Z,93371.72
2022-11-02T00:35:27.180Z,93365.09
2022-11-02T00:38:10.058Z,93367.69
2022-11-02T00:40:52.945Z,93373.78
2022-11-02T00:43:36.030Z,93373.97
2022-11-02T00:46:20.212Z,93377.34
2022-11-02T00:49:04.569Z,93378.28
2022-11-02T00:51:50.386Z,93384.28
2022-11-02T00:54:33.315Z,93382.78
2022-11-02T00:57:16.175Z,93378.75
2022-11-02T00:59:59.086Z,93374.72
2022-11-02T01:02:42.591Z,93381.78
2022-11-02T01:05:26.940Z,93376.63
2022-11-02T01:08:09.828Z,93375.00
2022-11-02T01:10:52.743Z,93373.38
2022-11-02T01:13:35.629Z,93378.38
2022-11-02T01:16:18.750Z,93378.53
2022-11-02T01:19:01.689Z,93378.66
2022-11-02T01:21:45.965Z,93370.94
2022-11-02T01:24:28.928Z,93372.03
2022-11-02T01:27:12.061Z,93373.00
2022-11-02T01:29:55.036Z,93371.38
2022-11-02T01:32:37.968Z,93370.72
2022-11-02T01:35:20.869Z,93369.25
2022-11-02T01:38:05.367Z,93368.59
2022-11-02T01:40:48.618Z,93362.75
2022-11-02T01:43:33.228Z,93362.09
2022-11-02T01:46:19.888Z,93365.78
2022-11-02T01:49:07.020Z,93369.47
2022-11-02T01:51:56.239Z,93360.94
2022-11-02T01:54:43.448Z,93371.22
2022-11-02T01:57:28.463Z,93365.94
2022-11-02T02:00:13.960Z,93364.00
2022-11-02T02:03:02.012Z,93370.13
2022-11-02T02:05:48.781Z,93369.31
2022-11-02T02:08:38.555Z,93365.94
2022-11-02T02:11:32.395Z,93361.75
2022-11-02T02:14:17.766Z,93359.97
2022-11-02T02:17:20.188Z,93363.38
2022-11-02T02:20:10.805Z,93363.38
2022-11-02T02:23:31.541Z,93359.19
2022-11-02T02:26:57.191Z,93360.94
2022-11-02T02:29:52.573Z,93358.84
2022-11-02T02:32:43.073Z,93357.09
2022-11-02T02:35:31.215Z,93359.53
2022-11-02T02:38:23.325Z,93360.19
2022-11-02T02:41:12.904Z,93352.16
2022-11-02T02:43:58.343Z,93359.31
2022-11-02T02:46:50.968Z,93367.25
2022-11-02T02:49:39.957Z,93375.22
2022-11-02T02:52:25.222Z,93369.75
2022-11-02T02:55:09.341Z,93373.78
2022-11-02T02:57:55.600Z,93375.25
2022-11-02T03:00:39.835Z,93374.31
2022-11-02T03:03:26.452Z,93372.38
2022-11-02T03:06:18.540Z,93371.25
2022-11-02T03:09:11.265Z,93370.19
2022-11-02T03:12:05.817Z,93371.63
2022-11-02T03:15:05.638Z,93374.72
2022-11-02T03:18:06.200Z,93377.16
2022-11-02T03:21:03.765Z,93383.66
2022-11-02T03:23:53.719Z,93389.44
2022-11-02T03:26:46.411Z,93387.53
2022-11-02T03:29:39.520Z,93393.34
2022-11-02T03:32:28.501Z,93388.19
2022-11-02T03:35:19.960Z,93391.88
2022-11-02T03:38:11.158Z,93390.25
2022-11-02T03:40:57.217Z,93389.44
2022-11-02T03:43:42.922Z,93398.00
2022-11-02T03:46:27.708Z,93401.25
2022-11-02T03:49:15.152Z,93395.13
2022-11-02T03:52:06.078Z,93393.22
2022-11-02T03:54:59.997Z,93395.78
2022-11-02T03:57:47.553Z,93411.09
2022-11-02T04:00:35.974Z,93409.50
2022-11-02T04:03:25.385Z,93410.44
2022-11-02T04:06:10.146Z,93420.09
2022-11-02T04:08:53.203Z,93422.84
2022-11-02T04:11:56.274Z,93414.44
2022-11-02T04:14:39.291Z,93420.56
2022-11-02T04:17:44.250Z,93433.75
2022-11-02T04:20:30.409Z,93433.25
2022-11-02T04:23:30.667Z,93426.09
2022-11-02T04:26:13.568Z,93430.06
2022-11-02T04:29:01.506Z,93426.03
2022-11-02T04:31:45.533Z,93423.06
2022-11-02T04:34:29.773Z,93421.09
2022-11-02T04:37:26.904Z,93428.47
2022-11-02T04:40:10.910Z,93426.19
2022-11-02T04:42:53.893Z,93422.25
2022-11-02T04:45:38.305Z,93431.25
2022-11-02T04:48:21.252Z,93430.72
2022-11-02T04:51:04.403Z,93434.41
2022-11-02T04:53:48.258Z,93432.94
2022-11-02T04:56:31.301Z,93432.41
2022-11-02T04:59:14.261Z,93431.75
2022-11-02T05:01:58.589Z,93431.91
2022-11-02T05:04:41.807Z,93443.31
2022-11-02T05:07:24.664Z,93436.81
2022-11-02T05:10:09.106Z,93438.88
2022-11-02T05:12:58.440Z,93439.16
2022-11-02T05:15:44.584Z,93448.81
2022-11-02T05:18:30.027Z,93438.78
2022-11-02T05:21:14.479Z,93439.72
2022-11-02T05:23:57.413Z,93440.56
2022-11-02T05:26:40.499Z,93431.34
2022-11-02T05:29:24.522Z,93440.00
2022-11-02T05:32:08.630Z,93437.44
2022-11-02T05:34:52.985Z,93437.59
2022-11-02T05:37:35.972Z,93432.59
2022-11-02T05:40:20.463Z,93445.31
2022-11-02T05:43:05.208Z,93446.94
2022-11-02T05:45:55.133Z,93439.34
2022-11-02T05:48:38.015Z,93451.44
2022-11-02T05:51:22.281Z,93448.19
2022-11-02T05:54:05.482Z,93439.78
2022-11-02T05:56:48.459Z,93438.16
2022-11-02T05:59:31.362Z,93447.78
2022-11-02T06:02:14.200Z,93441.84
2022-11-02T06:04:57.187Z,93447.56
2022-11-02T06:07:41.549Z,93452.19
2022-11-02T06:10:24.451Z,93456.81
2022-11-02T06:13:07.596Z,93466.44
2022-11-02T06:15:50.553Z,93458.88
2022-11-02T06:18:33.466Z,93463.88
2022-11-02T06:21:16.381Z,93463.88
2022-11-02T06:24:00.802Z,93463.72
2022-11-02T06:26:43.704Z,93466.97
2022-11-02T06:29:26.597Z,93464.25
2022-11-02T06:32:09.444Z,93468.31
2022-11-02T06:34:52.342Z,93474.13
2022-11-02T06:37:35.906Z,93485.09
2022-11-02T06:40:22.620Z,93484.94
2022-11-02T06:43:23.020Z,93482.38
2022-11-02T06:46:06.903Z,93489.31
2022-11-02T06:48:49.814Z,93492.00
2022-11-02T06:51:32.643Z,93493.91
2022-11-02T06:54:15.563Z,93494.84
2022-11-02T06:56:59.786Z,93497.44
2022-11-02T06:59:42.680Z,93509.34
2022-11-02T07:02:25.630Z,93512.09
2022-11-02T07:05:09.378Z,93518.34
2022-11-02T07:07:53.923Z,93520.22
2022-11-02T07:10:36.886Z,93520.06
2022-11-02T07:13:21.490Z,93511.41
2022-11-02T07:16:04.393Z,93515.59
2022-11-02T07:18:47.271Z,93515.75
2022-11-02T07:21:30.154Z,93526.69
2022-11-02T07:24:13.198Z,93529.00
2022-11-02T07:26:56.231Z,93525.47
2022-11-02T07:29:40.509Z,93530.63
2022-11-02T07:32:23.366Z,93531.56
2022-11-02T07:35:07.451Z,93535.78
2022-11-02T07:37:57.588Z,93543.63
2022-11-02T07:40:40.507Z,93536.94
2022-11-02T07:43:24.049Z,93537.19
2022-11-02T07:46:16.601Z,93545.72
2022-11-02T07:48:59.253Z,93539.16
2022-11-02T07:51:42.593Z,93545.50
2022-11-02T07:54:26.546Z,93543.59
2022-11-02T07:57:09.694Z,93553.63
2022-11-02T07:59:52.639Z,93562.84
2022-11-02T08:02:36.994Z,93553.03
2022-11-02T08:05:19.917Z,93564.97
2022-11-02T08:08:05.217Z,93565.13
2022-11-02T08:10:50.160Z,93564.19
2022-11-02T08:13:33.282Z,93565.38
2022-11-02T08:16:16.121Z,93574.16
2022-11-02T08:19:00.429Z,93574.41
2022-11-02T08:21:43.340Z,93587.97
2022-11-02T08:24:26.217Z,93581.97
2022-11-02T08:27:09.074Z,93586.19
2022-11-02T08:29:52.849Z,93584.41
2022-11-02T08:32:35.742Z,93588.09
2022-11-02T08:35:20.084Z,93584.72
2022-11-02T08:38:03.661Z,93587.66
2022-11-02T08:40:46.720Z,93587.59
2022-11-02T08:43:29.812Z,93585.25
2022-11-02T08:46:15.685Z,93582.38
2022-11-02T08:48:59.637Z,93581.81
2022-11-02T08:51:43.861Z,93585.28
2022-11-02T08:54:26.749Z,93590.44
2022-11-02T08:57:09.629Z,93584.34
2022-11-02T08:59:52.477Z,93596.09
2022-11-02T09:02:35.460Z,93587.31
2022-11-02T09:05:18.582Z,93577.94
2022-11-02T09:08:05.263Z,93572.97
2022-11-02T09:10:51.129Z,93567.28
2022-11-02T09:13:34.118Z,93576.72
2022-11-02T09:16:17.001Z,93564.81
2022-11-02T09:19:00.552Z,93559.00
2022-11-02T09:21:43.472Z,93565.81
2022-11-02T09:24:27.712Z,93563.31
2022-11-02T09:27:10.553Z,93565.50
2022-11-02T09:29:53.433Z,93564.13
2022-11-02T09:32:36.444Z,93564.53
2022-11-02T09:35:19.308Z,93562.44
2022-11-02T09:38:02.257Z,93561.31
2022-11-02T09:40:53.107Z,93563.09
2022-11-02T09:43:46.493Z,93557.44
2022-11-02T09:46:33.130Z,93553.06
2022-11-02T09:49:18.842Z,93565.22
2022-11-02T09:52:02.865Z,93565.56
2022-11-02T09:54:50.528Z,93567.19
2022-11-02T09:57:34.984Z,93578.19
2022-11-02T10:00:18.617Z,93574.63
2022-11-02T10:03:10.803Z,93585.13
2022-11-02T10:05:59.797Z,93574.63
2022-11-02T10:08:54.916Z,93572.66
2022-11-02T10:11:43.772Z,93566.56
2022-11-02T10:14:32.950Z,93569.75
2022-11-02T10:17:21.621Z,93572.00
2022-11-02T10:20:12.565Z,93579.31
2022-11-02T10:23:03.542Z,93581.72
2022-11-02T10:25:48.981Z,93572.78
2022-11-02T10:28:35.250Z,93568.09
2022-11-02T10:31:26.596Z,93575.06
2022-11-02T10:34:22.783Z,93569.97
2022-11-02T10:37:25.774Z,93570.38
2022-11-02T10:40:23.829Z,93566.09
2022-11-02T10:43:17.384Z,93568.66
2022-11-02T10:46:13.080Z,93574.81
2022-11-02T10:49:07.679Z,93573.66
2022-11-02T10:51:51.360Z,93569.88
2022-11-02T10:54:34.871Z,93563.38
2022-11-02T10:57:24.519Z,93572.41
2022-11-02T11:00:29.159Z,93566.75
2022-11-02T11:03:14.434Z,93555.56
2022-11-02T11:06:01.121Z,93556.03
2022-11-02T11:08:45.906Z,93555.91
2022-11-02T11:11:30.307Z,93551.31
2022-11-02T11:20:34.520Z,93552.63
2022-11-02T11:23:24.332Z,93547.56
2022-11-02T11:26:13.064Z,93544.16
2022-11-02T11:28:57.206Z,93543.84
2022-11-02T11:31:40.134Z,93543.31
2022-11-02T11:34:39.454Z,93544.91
2022-11-02T11:37:23.324Z,93545.50
2022-11-02T11:40:17.702Z,93544.63
2022-11-02T11:43:02.362Z,93549.81
2022-11-02T11:45:55.067Z,93537.31
2022-11-02T11:48:40.776Z,93548.75
2022-11-02T11:51:29.504Z,93553.03
2022-11-02T11:54:22.222Z,93543.19
2022-11-02T11:57:25.400Z,93547.78
2022-11-02T12:00:28.402Z,93552.38
2022-11-02T12:03:12.847Z,93554.94
2022-11-02T12:06:05.108Z,93539.53
2022-11-02T12:08:59.026Z,93547.41
2022-11-02T12:11:54.710Z,93550.13
2022-11-02T12:14:46.745Z,93546.41
2022-11-02T12:17:41.454Z,93541.69
2022-11-02T12:20:45.312Z,93542.19
2022-11-02T12:23:51.665Z,93545.13
2022-11-02T12:26:49.932Z,93548.63
2022-11-02T12:29:54.678Z,93540.56
2022-11-02T12:33:05.643Z,93535.28
2022-11-02T12:35:58.346Z,93537.50
2022-11-02T12:38:52.345Z,93538.03
2022-11-02T12:41:54.095Z,93536.75
2022-11-02T12:44:50.192Z,93540.13
2022-11-02T12:47:49.625Z,93527.66
2022-11-02T12:50:45.145Z,93532.19
2022-11-02T12:53:39.271Z,93539.50
2022-11-02T12:56:26.089Z,93533.03
2022-11-02T12:59:15.808Z,93531.88
2022-11-02T13:04:59.261Z,93531.09
2022-11-02T13:07:47.048Z,93528.16
2022-11-02T13:10:34.346Z,93529.94
2022-11-02T13:13:21.558Z,93521.03
2022-11-02T13:16:07.314Z,93521.84
2022-11-02T13:18:54.073Z,93513.91
2022-11-02T13:21:44.151Z,93523.94
2022-11-02T13:24:32.303Z,93524.28
2022-11-02T13:27:36.783Z,93520.22
2022-11-02T13:30:21.063Z,93516.81
2022-11-02T13:33:10.176Z,93519.91
2022-11-02T13:35:54.744Z,93521.69
2022-11-02T13:38:44.035Z,93513.59
2022-11-02T13:41:51.381Z,93516.03
2022-11-02T13:45:18.508Z,93524.13
2022-11-02T13:48:27.610Z,93524.94
2022-11-02T13:51:24.648Z,93530.28
2022-11-02T13:54:15.373Z,93543.88
2022-11-02T13:56:59.913Z,93537.53
2022-11-02T13:59:48.522Z,93532.72
2022-11-02T14:02:36.777Z,93524.44
2022-11-02T14:05:28.935Z,93524.44
2022-11-02T14:08:22.462Z,93519.75
2022-11-02T14:11:27.926Z,93519.28
2022-11-02T14:14:24.138Z,93525.56
2022-11-02T14:17:15.252Z,93524.09
2022-11-02T14:20:04.619Z,93520.56
2022-11-02T14:23:31.351Z,93527.50
2022-11-02T14:26:54.639Z,93524.72
2022-11-02T14:29:39.980Z,93530.53
2022-11-02T14:32:43.793Z,93533.63
2022-11-02T14:35:41.664Z,93540.84
2022-11-02T14:38:59.426Z,93539.41
2022-11-02T14:42:01.564Z,93539.56
2022-11-02T14:45:08.751Z,93538.25
2022-11-02T14:47:58.827Z,93538.41
2022-11-02T14:50:41.932Z,93532.09
2022-11-02T14:53:27.467Z,93533.38
2022-11-02T14:56:10.440Z,93535.41
2022-11-02T14:58:57.697Z,93528.09
2022-11-02T15:01:52.620Z,93532.91
2022-11-02T15:04:36.579Z,93527.25
2022-11-02T15:07:23.707Z,93526.09
2022-11-02T15:10:35.754Z,93524.63
2022-11-02T15:13:35.550Z,93512.66
2022-11-02T15:16:25.758Z,93503.63
2022-11-02T15:19:37.601Z,93515.13
2022-11-02T15:22:39.838Z,93505.44
2022-11-02T15:25:27.444Z,93507.88
2022-11-02T15:28:16.043Z,93503.19
2022-11-02T15:31:02.976Z,93502.97
2022-11-02T15:33:50.414Z,93505.53
2022-11-02T15:36:36.643Z,93505.47
2022-11-02T15:39:19.920Z,93506.25
2022-11-02T15:42:05.880Z,93511.38
2022-11-02T15:45:46.463Z,93520.06
2022-11-02T15:48:36.873Z,93520.78
2022-11-02T15:51:30.645Z,93524.00
2022-11-02T15:54:24.626Z,93519.41
2022-11-02T15:57:20.615Z,93527.41
2022-11-02T16:00:18.600Z,93520.88
2022-11-02T16:03:04.015Z,93527.44
2022-11-02T16:05:51.295Z,93514.31
2022-11-02T16:08:37.964Z,93510.69
2022-11-02T16:11:21.408Z,93530.28
2022-11-02T16:14:17.570Z,93522.25
2022-11-02T16:17:00.424Z,93522.03
2022-11-02T16:19:43.337Z,93523.56
2022-11-02T16:22:27.981Z,93524.69
2022-11-02T16:25:18.765Z,93524.16
2022-11-02T16:28:14.995Z,93523.63
2022-11-02T16:31:12.438Z,93530.34
2022-11-02T16:34:00.445Z,93530.91
2022-11-02T16:36:43.663Z,93543.84
2022-11-02T16:39:30.349Z,93537.78
2022-11-02T16:42:19.005Z,93545.44
2022-11-02T16:45:04.767Z,93549.06
2022-11-02T16:47:47.686Z,93549.22
2022-11-02T16:50:30.720Z,93547.44
2022-11-02T16:53:29.233Z,93540.16
2022-11-02T16:56:27.656Z,93540.06
2022-11-02T16:59:16.262Z,93532.38
2022-11-02T17:02:01.643Z,93546.75
2022-11-02T17:04:48.103Z,93552.88
2022-11-02T17:07:34.025Z,93562.94
2022-11-02T17:10:21.985Z,93572.03
2022-11-02T17:13:07.613Z,93569.19
2022-11-02T17:15:53.405Z,93569.00
2022-11-02T17:18:36.626Z,93565.78
2022-11-02T17:21:31.118Z,93570.38
2022-11-02T17:24:30.980Z,93564.28
2022-11-02T17:27:18.698Z,93572.69
2022-11-02T17:30:01.789Z,93569.59
2022-11-02T17:32:46.335Z,93572.84
2022-11-02T17:35:29.355Z,93576.63
2022-11-02T17:38:12.781Z,93571.88
2022-11-02T17:40:56.368Z,93570.41
2022-11-02T17:43:38.312Z,93555.38
2022-11-02T17:46:21.313Z,93548.63
2022-11-02T17:49:05.554Z,93551.19
2022-11-02T17:51:48.880Z,93549.25
2022-11-02T17:54:31.909Z,93554.41
2022-11-02T17:57:16.063Z,93559.00
2022-11-02T17:59:58.952Z,93556.69
2022-11-02T18:02:42.317Z,93563.09
2022-11-02T18:05:28.604Z,93572.94
2022-11-02T18:08:11.680Z,93571.56
2022-11-02T18:10:54.712Z,93567.63
2022-11-02T18:13:37.731Z,93561.84
2022-11-02T18:16:20.773Z,93564.53
2022-11-02T18:19:03.670Z,93562.78
2022-11-02T18:21:49.704Z,93558.59
2022-11-02T18:24:33.493Z,93558.69
2022-11-02T18:27:16.459Z,93548.56
2022-11-02T18:29:59.424Z,93545.31
2022-11-02T18:32:44.119Z,93558.97
2022-11-02T18:35:27.322Z,93559.25
2022-11-02T18:38:11.653Z,93557.06
2022-11-02T18:40:54.531Z,93552.44
2022-11-02T18:43:37.398Z,93552.16
2022-11-02T18:46:20.435Z,93550.94
2022-11-02T18:49:03.650Z,93550.38
2022-11-02T18:51:47.672Z,93547.25
2022-11-02T18:54:32.236Z,93545.78
2022-11-02T18:57:15.142Z,93543.47
2022-11-02T18:59:58.155Z,93538.44
2022-11-02T19:02:41.796Z,93527.75
2022-11-02T19:05:42.766Z,93523.69
2022-11-02T19:08:43.416Z,93524.31
2022-11-02T19:11:27.921Z,93526.19
2022-11-02T19:14:10.825Z,93532.31
2022-11-02T19:16:53.863Z,93528.13
2022-11-02T19:19:37.608Z,93527.44
2022-11-02T19:22:22.901Z,93524.16
2022-11-02T19:25:06.499Z,93523.34
2022-11-02T19:27:50.771Z,93525.81
2022-11-02T19:30:33.908Z,93520.53
2022-11-02T19:33:16.797Z,93521.34
2022-11-02T19:35:59.920Z,93520.66
2022-11-02T19:38:42.782Z,93513.91
2022-11-02T19:41:25.722Z,93514.16
2022-11-02T19:44:09.990Z,93509.41
2022-11-02T19:46:53.168Z,93507.50
2022-11-02T19:49:36.024Z,93517.22
2022-11-02T19:52:19.013Z,93510.44
2022-11-02T19:55:01.993Z,93511.38
2022-11-02T19:57:44.958Z,93513.97
2022-11-02T20:00:29.325Z,93504.63
2022-11-02T20:03:12.727Z,93502.88
2022-11-02T20:06:00.604Z,93508.13
2022-11-02T20:08:44.019Z,93499.84
2022-11-02T20:11:28.486Z,93503.38
2022-11-02T20:14:12.459Z,93498.59
2022-11-02T20:17:10.576Z,93500.59
2022-11-02T20:19:53.805Z,93507.75
2022-11-02T20:22:38.573Z,93504.50
2022-11-02T20:25:22.934Z,93506.13
2022-11-02T20:28:06.470Z,93504.25
2022-11-02T20:30:49.885Z,93513.69
2022-11-02T20:33:34.897Z,93507.63
2022-11-02T20:36:17.854Z,93507.88
2022-11-02T20:39:03.298Z,93511.34
2022-11-02T20:41:46.174Z,93503.69
2022-11-02T20:44:29.029Z,93510.53
2022-11-02T20:47:11.952Z,93509.38
2022-11-02T20:49:56.162Z,93506.13
2022-11-02T20:52:39.017Z,93511.16
2022-11-02T20:55:22.341Z,93500.75
2022-11-02T20:58:05.276Z,93500.66
2022-11-02T21:00:48.905Z,93503.88
2022-11-02T21:03:31.821Z,93502.13
2022-11-02T21:06:16.006Z,93494.59
2022-11-02T21:08:59.552Z,93488.63
2022-11-02T21:12:00.019Z,93487.69
2022-11-02T21:14:42.942Z,93494.59
2022-11-02T21:17:25.857Z,93485.25
2022-11-02T21:23:14.521Z,93480.38
2022-11-02T21:25:59.758Z,93482.00
2022-11-02T21:28:44.642Z,93474.31
2022-11-02T21:31:27.564Z,93479.56
2022-11-02T21:34:10.425Z,93478.84
2022-11-02T21:36:53.512Z,93480.38
2022-11-02T21:39:38.003Z,93474.31
2022-11-02T21:42:20.854Z,93473.72
2022-11-02T21:45:04.592Z,93478.19
2022-11-02T21:47:50.531Z,93474.81
2022-11-02T21:50:33.420Z,93467.13
2022-11-02T21:53:16.271Z,93458.63
2022-11-02T21:56:02.284Z,93455.22
2022-11-02T21:58:46.578Z,93454.53
2022-11-02T22:01:47.144Z,93444.28
2022-11-02T22:04:32.068Z,93447.69
2022-11-02T22:07:15.115Z,93450.09
2022-11-02T22:09:57.985Z,93445.66
2022-11-02T22:12:59.832Z,93449.16
2022-11-02T22:15:42.698Z,93445.91
2022-11-02T22:18:25.537Z,93451.97
2022-11-02T22:21:08.591Z,93448.06
2022-11-02T22:23:52.746Z,93440.47
2022-11-02T22:26:37.475Z,93444.81
2022-11-02T22:29:21.792Z,93444.81
2022-11-02T22:32:04.664Z,93448.31
2022-11-02T22:34:47.957Z,93448.31
2022-11-02T22:37:48.433Z,93443.88
2022-11-02T22:40:31.327Z,93442.94
2022-11-02T22:43:14.226Z,93445.59
2022-11-02T22:46:02.447Z,93450.19
2022-11-02T22:48:45.371Z,93448.69
2022-11-02T22:51:30.151Z,93437.84
2022-11-02T22:54:15.654Z,93442.28
2022-11-02T22:56:58.611Z,93444.84
2022-11-02T22:59:41.589Z,93440.66
2022-11-02T23:02:26.053Z,93435.13
2022-11-02T23:05:09.741Z,93443.84
2022-11-02T23:07:52.650Z,93439.00
2022-11-02T23:10:54.661Z,93439.34
2022-11-02T23:13:37.622Z,93438.41
2022-11-02T23:16:22.998Z,93432.03
2022-11-02T23:19:28.356Z,93431.47
2022-11-02T23:22:31.151Z,93429.84
2022-11-02T23:25:15.247Z,93423.22
2022-11-02T23:28:16.570Z,93416.72
2022-11-02T23:31:16.924Z,93418.44
2022-11-02T23:33:59.777Z,93412.22
2022-11-02T23:36:43.425Z,93407.00
2022-11-02T23:39:42.813Z,93395.50
2022-11-02T23:42:25.742Z,93409.50
2022-11-02T23:45:10.364Z,93392.72
2022-11-02T23:48:01.280Z,93379.63
2022-11-02T23:51:01.592Z,93371.59
2022-11-02T23:54:03.551Z,93365.78
2022-11-02T23:56:46.472Z,93362.19
2022-11-02T23:59:29.740Z,93358.13
